createdAt,value
2016-09-18T00:02:04.094Z,43.8
2016-09-18T00:07:03.674Z,43.8
2016-09-18T00:12:03.928Z,44.0
2016-09-18T00:17:03.595Z,43.9
2016-09-18T00:22:04.122Z,44.0
2016-09-18T00:27:03.701Z,44.1
2016-09-18T00:32:04.325Z,44.1
2016-09-18T00:37:03.939Z,44.1
2016-09-18T00:42:03.597Z,44.1
2016-09-18T00:47:04.158Z,44.2
2016-09-18T00:52:03.728Z,44.2
2016-09-18T00:57:04.352Z,44.1
2016-09-18T01:02:04.079Z,44.3
2016-09-18T01:07:03.813Z,44.4
2016-09-18T01:12:04.190Z,44.4
2016-09-18T01:17:03.799Z,44.4
2016-09-18T01:22:04.339Z,44.3
2016-09-18T01:27:03.910Z,44.4
2016-09-18T01:32:03.690Z,44.3
2016-09-18T01:37:03.794Z,44.3
2016-09-18T01:42:04.362Z,44.4
2016-09-18T01:47:04.065Z,44.4
2016-09-18T01:52:03.649Z,44.4
2016-09-18T01:57:04.256Z,44.5
2016-09-18T02:02:03.824Z,44.5
2016-09-18T02:07:03.753Z,44.5
2016-09-18T02:12:04.327Z,44.6
2016-09-18T02:17:04.067Z,44.4
2016-09-18T02:22:03.727Z,44.6
2016-09-18T02:27:04.740Z,44.6
2016-09-18T02:32:04.927Z,44.8
2016-09-18T02:37:04.266Z,44.6
2016-09-18T02:42:04.446Z,44.4
2016-09-18T02:47:04.768Z,44.7
2016-09-18T02:52:04.729Z,44.7
2016-09-18T02:57:04.937Z,44.6
2016-09-18T03:02:04.226Z,44.8
2016-09-18T03:07:04.343Z,44.6
2016-09-18T03:12:04.150Z,44.5
2016-09-18T03:17:04.693Z,44.7
2016-09-18T03:22:04.761Z,44.3
2016-09-18T03:27:04.881Z,44.2
2016-09-18T03:32:04.022Z,44.7
2016-09-18T03:37:04.266Z,44.2
2016-09-18T03:42:04.445Z,44.4
2016-09-18T03:47:04.746Z,44.7
2016-09-18T03:52:04.596Z,44.3
2016-09-18T03:57:04.773Z,44.6
2016-09-18T04:02:04.182Z,44.5
2016-09-18T04:08:54.390Z,44.3
2016-09-18T04:14:28.819Z,44.6
2016-09-18T04:17:31.238Z,44.5
2016-09-18T04:28:23.923Z,45.2
2016-09-18T04:42:09.006Z,45.2
2016-09-18T04:47:11.766Z,45.7
2016-09-18T04:52:08.710Z,45.7
2016-09-18T04:57:16.796Z,45.6
2016-09-18T20:02:04.057Z,49.3
2016-09-18T20:07:04.137Z,49.4
2016-09-18T20:12:04.400Z,49.4
2016-09-18T20:17:03.910Z,49.3
2016-09-18T20:22:03.780Z,49.3
2016-09-18T20:27:03.991Z,49.3
2016-09-18T20:32:04.019Z,49.1
2016-09-18T20:37:04.098Z,48.9
2016-09-18T20:42:04.186Z,48.9
2016-09-18T20:47:04.478Z,48.8
2016-09-18T20:52:03.517Z,48.8
2016-09-18T20:57:03.656Z,48.8
2016-09-18T21:02:03.697Z,48.8
2016-09-18T21:07:03.967Z,48.7
2016-09-18T21:12:04.198Z,48.8
2016-09-18T21:17:04.237Z,49.0
2016-09-18T21:22:03.506Z,49.1
2016-09-18T21:27:03.672Z,49.2
2016-09-18T21:32:03.742Z,49.1
2016-09-18T21:37:03.888Z,49.3
2016-09-18T21:42:03.873Z,49.4
2016-09-18T21:47:04.076Z,49.4
2016-09-18T21:52:04.056Z,49.4
2016-09-18T21:57:04.209Z,49.4
2016-09-18T22:02:04.495Z,49.3
2016-09-18T22:07:03.887Z,49.3
2016-09-18T22:12:04.112Z,49.3
2016-09-18T22:22:04.453Z,49.1
2016-09-18T22:27:03.702Z,49.1
2016-09-18T22:32:04.236Z,49.1
2016-09-18T22:37:03.532Z,49.2
2016-09-18T22:42:03.962Z,49.2
2016-09-18T22:47:04.446Z,49.2
2016-09-18T22:52:03.970Z,49.0
2016-09-18T22:57:03.449Z,49.0
2016-09-18T23:02:03.839Z,49.0
2016-09-18T23:07:03.763Z,48.9
2016-09-18T23:12:04.043Z,48.7
2016-09-18T23:17:04.205Z,48.6
2016-09-18T23:22:03.640Z,48.8
2016-09-18T23:27:04.104Z,48.7
2016-09-18T23:32:03.654Z,48.7
2016-09-18T23:37:04.101Z,48.7
2016-09-18T23:42:03.617Z,48.5
2016-09-18T23:47:04.302Z,48.5
2016-09-18T23:52:03.877Z,48.7
2016-09-18T23:57:03.490Z,48.7
